Time;durP1;ratioP1;P1;durP2;ratioP2;P2;SDS_P1;SDS_P2;PMS_P1;PMS_P2;Temp;Humidity;BMP_temperature;BMP_pressure;BME280_temperature;BME280_humidity;BME280_pressure;Samples;Min_cycle;Max_cycle;Signal;HPM_P1;HPM_P2
2023/07/07 00:02:27;;;;;;;;;;;;;;;;;;2197397;67;1851;-24
2023/07/07 00:04:57;;;;;;;;;;;;;;;;;;2200998;59;2085;-23
2023/07/07 00:07:28;;;;;;;;;;;;;;;;;;2200765;59;1746;-23
2023/07/07 00:09:58;;;;;;;;;;;;;;;;;;2200294;59;2210;-24
2023/07/07 00:12:30;;;;;;;;;;;;;;;;;;2200878;59;2632;-23
2023/07/07 00:15:00;;;;;;;;;;;;;;;;;;2196223;59;2619;-23
2023/07/07 00:17:30;;;;;;;;;;;;;;;;;;2196972;67;2378;-23
2023/07/07 00:20:07;;;;;;;;;;;;;;;;;;2200406;60;2205;-23
2023/07/07 00:22:38;;;;;;;;;;;;;;;;;;2201017;67;1768;-23
2023/07/07 00:25:09;;;;;;;;;;;;;;;;;;2200517;67;2000;-23
2023/07/07 00:27:39;;;;;;;;;;;;;;;;;;2201102;59;2381;-23
2023/07/07 00:30:10;;;;;;;;;;;;;;;;;;2195877;67;2743;-23
2023/07/07 00:32:40;;;;;;;;;;;;;;;;;;2201095;59;2447;-23
2023/07/07 00:35:10;;;;;;;;;;;;;;;;;;2200313;67;1985;-23
2023/07/07 00:37:42;;;;;;;;;;;;;;;;;;2201194;67;1780;-24
2023/07/07 00:40:13;;;;;;;;;;;;;;;;;;2200329;67;2780;-23
2023/07/07 00:42:46;;;;;;;;;;;;;;;;;;2201130;67;2832;-23
2023/07/07 00:45:16;;;;;;;;;;;;;;;;;;2200075;67;2296;-23
2023/07/07 00:47:57;;;;;;;;;;;;;;;;;;2201339;59;2747;-23
2023/07/07 00:50:32;;;;;;;;;;;;;;;;;;2201363;67;1491;-23
2023/07/07 00:53:03;;;;;;;;;;;;;;;;;;2201456;59;2000;-23
2023/07/07 00:55:33;;;;;;;;;;;;;;;;;;2201213;59;2005;-23
2023/07/07 00:58:09;;;;;;;;;;;;;;;;;;2200210;67;2052;-23
2023/07/07 01:00:41;;;;;;;;;;;;;;;;;;2201741;67;1808;-23
2023/07/07 01:03:25;;;;;;;;;;;;;;;;;;2201322;59;1730;-23
2023/07/07 01:05:59;;;;;;;;;;;;;;;;;;2200679;59;2039;-23
2023/07/07 01:08:30;;;;;;;;;;;;;;;;;;2201195;67;1789;-23
2023/07/07 01:11:00;;;;;;;;;;;;;;;;;;2197354;67;2466;-23
2023/07/07 01:13:30;;;;;;;;;;;;;;;;;;2200385;59;2081;-23
2023/07/07 01:16:07;;;;;;;;;;;;;;;;;;2199844;67;3014;-24
2023/07/07 01:18:40;;;;;;;;;;;;;;;;;;2200346;60;2669;-23
2023/07/07 01:21:33;;;;;;;;;;;;;;;;;;2200506;67;2649;-23
2023/07/07 01:24:03;;;;;;;;;;;;;;;;;;2197673;67;1987;-23
2023/07/07 01:26:46;;;;;;;;;;;;;;;;;;2200608;59;2372;-23
2023/07/07 01:29:38;;;;;;;;;;;;;;;;;;2200405;67;1242;-23
2023/07/07 01:32:11;;;;;;;;;;;;;;;;;;2200557;67;2676;-23
2023/07/07 01:34:41;;;;;;;;;;;;;;;;;;2200643;67;1993;-23
2023/07/07 01:37:12;;;;;;;;;;;;;;;;;;2199738;63;1951;-23
2023/07/07 01:39:43;;;;;;;;;;;;;;;;;;2200738;67;1801;-23
2023/07/07 01:42:18;;;;;;;;;;;;;;;;;;2199792;67;1737;-23
2023/07/07 01:44:55;;;;;;;;;;;;;;;;;;2200427;67;2211;-23
2023/07/07 01:47:30;;;;;;;;;;;;;;;;;;2197121;59;2569;-23
2023/07/07 01:50:11;;;;;;;;;;;;;;;;;;2196804;59;2795;-23
2023/07/07 01:52:44;;;;;;;;;;;;;;;;;;2201225;59;1897;-23
2023/07/07 01:55:20;;;;;;;;;;;;;;;;;;2196595;59;2727;-23
2023/07/07 01:57:53;;;;;;;;;;;;;;;;;;2200590;59;1764;-23
2023/07/07 02:00:25;;;;;;;;;;;;;;;;;;2200115;67;2250;-23
2023/07/07 02:02:56;;;;;;;;;;;;;;;;;;2200484;59;2159;-23
2023/07/07 02:05:27;;;;;;;;;;;;;;;;;;2200629;59;1880;-23
2023/07/07 02:07:57;;;;;;;;;;;;;;;;;;2197254;67;1834;-23
2023/07/07 02:10:28;;;;;;;;;;;;;;;;;;2200350;67;2062;-23
2023/07/07 02:12:58;;;;;;;;;;;;;;;;;;2200094;59;1869;-23
2023/07/07 02:15:28;;;;;;;;;;;;;;;;;;2199285;59;2611;-23
2023/07/07 02:17:58;;;;;;;;;;;;;;;;;;2200154;67;3449;-23
2023/07/07 02:20:29;;;;;;;;;;;;;;;;;;2197328;67;2264;-23
2023/07/07 02:22:59;;;;;;;;;;;;;;;;;;2200356;67;3523;-23
2023/07/07 02:25:29;;;;;;;;;;;;;;;;;;2200756;67;2379;-23
2023/07/07 02:27:59;;;;;;;;;;;;;;;;;;2200819;59;2228;-23
2023/07/07 02:30:29;;;;;;;;;;;;;;;;;;2200758;59;1913;-23
2023/07/07 02:33:00;;;;;;;;;;;;;;;;;;2200542;67;1795;-23
2023/07/07 02:35:31;;;;;;;;;;;;;;;;;;2201428;67;1949;-23
2023/07/07 02:38:04;;;;;;;;;;;;;;;;;;2201189;67;1412;-23
2023/07/07 02:40:34;;;;;;;;;;;;;;;;;;2200499;67;1399;-23
2023/07/07 02:43:05;;;;;;;;;;;;;;;;;;2200718;67;1686;-23
2023/07/07 02:45:35;;;;;;;;;;;;;;;;;;2200419;59;1862;-24
2023/07/07 02:48:05;;;;;;;;;;;;;;;;;;2200949;67;1576;-23
2023/07/07 02:50:35;;;;;;;;;;;;;;;;;;2197904;59;1853;-23
2023/07/07 02:53:05;;;;;;;;;;;;;;;;;;2201025;59;1340;-23
2023/07/07 02:55:36;;;;;;;;;;;;;;;;;;2201509;59;1976;-23
2023/07/07 02:58:06;;;;;;;;;;;;;;;;;;2200991;67;1671;-23
2023/07/07 03:00:36;;;;;;;;;;;;;;;;;;2197773;67;2024;-24
2023/07/07 03:03:07;;;;;;;;;;;;;;;;;;2201059;59;1662;-22
2023/07/07 03:05:37;;;;;;;;;;;;;;;;;;2201431;59;1359;-23
2023/07/07 03:08:08;;;;;;;;;;;;;;;;;;2200862;67;1265;-23
2023/07/07 03:10:39;;;;;;;;;;;;;;;;;;2201044;67;1458;-23
2023/07/07 03:13:10;;;;;;;;;;;;;;;;;;2200391;59;1877;-23
2023/07/07 03:15:40;;;;;;;;;;;;;;;;;;2200957;67;2331;-23
2023/07/07 03:18:10;;;;;;;;;;;;;;;;;;2199652;67;2240;-23
2023/07/07 03:20:47;;;;;;;;;;;;;;;;;;2201538;67;1854;-23
2023/07/07 03:23:17;;;;;;;;;;;;;;;;;;2200885;67;2884;-23
2023/07/07 03:25:47;;;;;;;;;;;;;;;;;;2201226;59;1953;-23
2023/07/07 03:28:18;;;;;;;;;;;;;;;;;;2201189;59;2328;-23
2023/07/07 03:30:48;;;;;;;;;;;;;;;;;;2200844;59;2298;-23
2023/07/07 03:33:18;;;;;;;;;;;;;;;;;;2201249;67;1801;-23
2023/07/07 03:35:53;;;;;;;;;;;;;;;;;;2201187;67;2056;-23
2023/07/07 03:38:23;;;;;;;;;;;;;;;;;;2196917;67;1912;-23
2023/07/07 03:40:53;;;;;;;;;;;;;;;;;;2200934;67;1866;-23
2023/07/07 03:43:23;;;;;;;;;;;;;;;;;;2201046;67;1911;-23
2023/07/07 03:45:54;;;;;;;;;;;;;;;;;;2200548;60;1738;-23
2023/07/07 03:48:25;;;;;;;;;;;;;;;;;;2201348;67;2788;-23
2023/07/07 03:50:59;;;;;;;;;;;;;;;;;;2201160;59;1800;-23
2023/07/07 03:53:30;;;;;;;;;;;;;;;;;;2201151;67;2537;-23
2023/07/07 03:56:01;;;;;;;;;;;;;;;;;;2200815;59;2103;-23
2023/07/07 03:58:31;;;;;;;;;;;;;;;;;;2201556;67;1167;-23
2023/07/07 04:01:03;;;;;;;;;;;;;;;;;;2201337;59;2007;-23
2023/07/07 04:03:33;;;;;;;;;;;;;;;;;;2198759;59;1831;-23
2023/07/07 04:06:04;;;;;;;;;;;;;;;;;;2201661;59;1829;-23
2023/07/07 04:08:34;;;;;;;;;;;;;;;;;;2202128;67;1803;-23
2023/07/07 04:11:06;;;;;;;;;;;;;;;;;;2200560;59;2424;-23
2023/07/07 04:13:37;;;;;;;;;;;;;;;;;;2201664;67;2619;-23
2023/07/07 04:16:09;;;;;;;;;;;;;;;;;;2200307;67;2006;-24
2023/07/07 04:18:39;;;;;;;;;;;;;;;;;;2200662;60;3359;-23
2023/07/07 04:21:11;;;;;;;;;;;;;;;;;;2193990;67;2356;-23
2023/07/07 04:23:44;;;;;;;;;;;;;;;;;;2194580;67;1770;-23
2023/07/07 04:26:15;;;;;;;;;;;;;;;;;;2200071;59;1748;-23
2023/07/07 04:28:45;;;;;;;;;;;;;;;;;;2201687;59;2000;-24
2023/07/07 04:31:16;;;;;;;;;;;;;;;;;;2200607;67;1684;-23
2023/07/07 04:33:46;;;;;;;;;;;;;;;;;;2201437;67;2254;-24
2023/07/07 04:36:16;;;;;;;;;;;;;;;;;;2200296;59;1687;-23
2023/07/07 04:38:48;;;;;;;;;;;;;;;;;;2200990;67;1809;-23
2023/07/07 04:41:23;;;;;;;;;;;;;;;;;;2200755;67;1787;-23
2023/07/07 04:43:57;;;;;;;;;;;;;;;;;;2200776;67;1955;-23
2023/07/07 04:46:29;;;;;;;;;;;;;;;;;;2201068;59;1662;-23
2023/07/07 04:48:59;;;;;;;;;;;;;;;;;;2200935;67;2309;-23
2023/07/07 04:51:30;;;;;;;;;;;;;;;;;;2201540;59;2827;-23
2023/07/07 04:54:00;;;;;;;;;;;;;;;;;;2200795;67;2003;-23
2023/07/07 04:56:31;;;;;;;;;;;;;;;;;;2200858;59;1759;-23
2023/07/07 04:59:02;;;;;;;;;;;;;;;;;;2201332;67;1203;-23
2023/07/07 05:01:32;;;;;;;;;;;;;;;;;;2200914;67;1813;-23
2023/07/07 05:04:03;;;;;;;;;;;;;;;;;;2201261;59;2182;-23
2023/07/07 05:06:37;;;;;;;;;;;;;;;;;;2197680;59;1704;-23
2023/07/07 05:09:09;;;;;;;;;;;;;;;;;;2201344;67;1138;-24
2023/07/07 05:11:40;;;;;;;;;;;;;;;;;;2201971;59;1656;-24
2023/07/07 05:14:10;;;;;;;;;;;;;;;;;;2200383;59;2390;-23
2023/07/07 05:16:40;;;;;;;;;;;;;;;;;;2201627;67;1638;-23
2023/07/07 05:19:10;;;;;;;;;;;;;;;;;;2199326;59;2681;-24
2023/07/07 05:21:41;;;;;;;;;;;;;;;;;;2200941;67;2560;-23
2023/07/07 05:24:11;;;;;;;;;;;;;;;;;;2200294;67;1783;-24
2023/07/07 05:26:41;;;;;;;;;;;;;;;;;;2200662;59;2576;-24
2023/07/07 05:29:12;;;;;;;;;;;;;;;;;;2200459;67;1723;-24
2023/07/07 05:31:42;;;;;;;;;;;;;;;;;;2201128;59;1793;-23
2023/07/07 05:34:13;;;;;;;;;;;;;;;;;;2200648;67;1945;-24
2023/07/07 05:36:43;;;;;;;;;;;;;;;;;;2200880;59;1741;-23
2023/07/07 05:39:13;;;;;;;;;;;;;;;;;;2200095;59;2107;-24
2023/07/07 05:41:43;;;;;;;;;;;;;;;;;;2201259;59;2070;-23
2023/07/07 05:44:14;;;;;;;;;;;;;;;;;;2200364;60;2740;-23
2023/07/07 05:46:44;;;;;;;;;;;;;;;;;;2201368;59;2737;-24
2023/07/07 05:49:14;;;;;;;;;;;;;;;;;;2200438;67;1958;-24
2023/07/07 05:51:45;;;;;;;;;;;;;;;;;;2204019;59;2036;-24
2023/07/07 05:54:16;;;;;;;;;;;;;;;;;;2207286;67;2112;-23
2023/07/07 05:56:46;;;;;;;;;;;;;;;;;;2206323;59;1679;-24
2023/07/07 05:59:19;;;;;;;;;;;;;;;;;;2205389;67;1576;-24
2023/07/07 06:01:50;;;;;;;;;;;;;;;;;;2199927;67;1979;-24
2023/07/07 06:04:20;;;;;;;;;;;;;;;;;;2201754;59;1989;-24
2023/07/07 06:06:50;;;;;;;;;;;;;;;;;;2201943;59;1673;-24
2023/07/07 06:09:20;;;;;;;;;;;;;;;;;;2201068;67;1897;-24
2023/07/07 06:11:51;;;;;;;;;;;;;;;;;;2201891;59;1837;-24
2023/07/07 06:14:21;;;;;;;;;;;;;;;;;;2200643;67;1946;-24
2023/07/07 06:16:51;;;;;;;;;;;;;;;;;;2202295;67;2058;-24
2023/07/07 06:19:21;;;;;;;;;;;;;;;;;;2200352;67;2532;-24
2023/07/07 06:21:52;;;;;;;;;;;;;;;;;;2200867;67;2364;-24
2023/07/07 06:24:22;;;;;;;;;;;;;;;;;;2200632;67;1828;-24
2023/07/07 06:26:52;;;;;;;;;;;;;;;;;;2200917;59;1696;-24
2023/07/07 06:29:22;;;;;;;;;;;;;;;;;;2197149;59;1645;-24
2023/07/07 06:31:53;;;;;;;;;;;;;;;;;;2204390;59;2215;-24
2023/07/07 06:34:23;;;;;;;;;;;;;;;;;;2201461;67;2140;-24
2023/07/07 06:36:53;;;;;;;;;;;;;;;;;;2202506;67;1634;-24
2023/07/07 06:39:24;;;;;;;;;;;;;;;;;;2201158;67;1344;-24
2023/07/07 06:41:54;;;;;;;;;;;;;;;;;;2201212;59;1664;-24
2023/07/07 06:44:25;;;;;;;;;;;;;;;;;;2197475;67;1541;-24
2023/07/07 06:46:55;;;;;;;;;;;;;;;;;;2200590;59;2748;-24
2023/07/07 06:49:25;;;;;;;;;;;;;;;;;;2200762;59;2157;-24
2023/07/07 06:51:55;;;;;;;;;;;;;;;;;;2199828;59;2219;-24
2023/07/07 06:54:26;;;;;;;;;;;;;;;;;;2200488;59;2530;-24
2023/07/07 06:56:56;;;;;;;;;;;;;;;;;;2200229;59;2436;-24
2023/07/07 06:59:26;;;;;;;;;;;;;;;;;;2200555;67;2027;-24
2023/07/07 07:01:56;;;;;;;;;;;;;;;;;;2198564;59;3055;-24
2023/07/07 07:04:29;;;;;;;;;;;;;;;;;;2199767;59;2182;-24
2023/07/07 07:07:00;;;;;;;;;;;;;;;;;;2199403;59;2281;-24
2023/07/07 07:09:30;;;;;;;;;;;;;;;;;;2199346;59;2098;-24
2023/07/07 07:12:00;;;;;;;;;;;;;;;;;;2199266;59;2384;-24
2023/07/07 07:14:30;;;;;;;;;;;;;;;;;;2200651;67;1935;-24
2023/07/07 07:17:00;;;;;;;;;;;;;;;;;;2198403;59;2167;-24
2023/07/07 07:19:31;;;;;;;;;;;;;;;;;;2200249;67;2406;-24
2023/07/07 07:22:01;;;;;;;;;;;;;;;;;;2200106;59;2478;-24
2023/07/07 07:24:31;;;;;;;;;;;;;;;;;;2200971;60;1886;-24
2023/07/07 07:27:01;;;;;;;;;;;;;;;;;;2200448;59;2383;-24
2023/07/07 07:29:32;;;;;;;;;;;;;;;;;;2201203;67;2423;-24
2023/07/07 07:32:02;;;;;;;;;;;;;;;;;;2201529;59;2457;-24
2023/07/07 07:34:32;;;;;;;;;;;;;;;;;;2201622;59;2115;-24
2023/07/07 07:37:04;;;;;;;;;;;;;;;;;;2200329;59;2377;-24
2023/07/07 07:39:34;;;;;;;;;;;;;;;;;;2201673;67;1803;-24
2023/07/07 07:42:05;;;;;;;;;;;;;;;;;;2201397;67;2016;-24
2023/07/07 07:44:35;;;;;;;;;;;;;;;;;;2197229;59;1648;-22
2023/07/07 07:47:06;;;;;;;;;;;;;;;;;;2200550;67;2275;-22
2023/07/07 07:49:39;;;;;;;;;;;;;;;;;;2201437;60;1928;-22
2023/07/07 07:52:09;;;;;;;;;;;;;;;;;;2200520;59;2450;-22
2023/07/07 07:54:39;;;;;;;;;;;;;;;;;;2201508;67;2564;-23
2023/07/07 07:57:09;;;;;;;;;;;;;;;;;;2200608;59;2290;-23
2023/07/07 07:59:40;;;;;;;;;;;;;;;;;;2201335;59;1582;-23
2023/07/07 08:02:11;;;;;;;;;;;;;;;;;;2200513;60;1689;-23
2023/07/07 08:04:41;;;;;;;;;;;;;;;;;;2201459;59;2410;-22
2023/07/07 08:07:11;;;;;;;;;;;;;;;;;;2275636;54;3724;-21
2023/07/07 08:09:41;;;;;;;;;;;;;;;;;;2375171;62;1084;-21
2023/07/07 08:12:11;;;;;;;;;;;;;;;;;;2376784;54;1438;-21
2023/07/07 08:14:42;;;;;;;;;;;;;;;;;;2372692;54;1983;-21
2023/07/07 08:17:12;;;;;;;;;;;;;;;;;;2374838;54;1268;-21
2023/07/07 08:19:44;;;;;;;;;;;;;;;;;;2372651;54;1103;-21
2023/07/07 08:22:15;;;;;;;;;;;;;;;;;;2370192;54;1469;-21
2023/07/07 08:24:48;;;;;;;;;;;;;;;;;;2372780;54;1221;-21
2023/07/07 08:27:20;;;;;;;;;;;;;;;;;;2372996;54;1966;-21
2023/07/07 08:29:50;;;;;;;;;;;;;;;;;;2375894;62;1275;-21
2023/07/07 08:32:22;;;;;;;;;;;;;;;;;;2375139;54;1351;-21
2023/07/07 08:34:53;;;;;;;;;;;;;;;;;;2371804;54;1937;-18
2023/07/07 08:37:24;;;;;;;;;;;;;;;;;;2374488;62;1257;-18
2023/07/07 08:39:55;;;;;;;;;;;;;;;;;;2373249;54;1321;-18
2023/07/07 08:42:28;;;;;;;;;;;;;;;;;;2373001;62;1081;-19
2023/07/07 08:44:59;;;;;;;;;;;;;;;;;;2373128;62;1031;-19
2023/07/07 08:47:42;;;;;;;;;;;;;;;;;;2372674;62;1532;-19
2023/07/07 08:50:27;;;;;;;;;;;;;;;;;;2371986;54;1777;-19
2023/07/07 08:53:01;;;;;;;;;;;;;;;;;;2372011;54;1579;-18
2023/07/07 08:55:31;;;;;;;;;;;;;;;;;;2374180;54;2311;-18
2023/07/07 08:58:02;;;;;;;;;;;;;;;;;;2371427;54;1669;-18
2023/07/07 09:00:52;;;;;;;;;;;;;;;;;;2370861;55;1649;-18
2023/07/07 09:03:49;;;;;;;;;;;;;;;;;;2368639;54;1597;-19
2023/07/07 09:06:34;;;;;;;;;;;;;;;;;;2372810;54;1241;-19
2023/07/07 09:09:17;;;;;;;;;;;;;;;;;;2371589;62;1098;-19
2023/07/07 09:11:53;;;;;;;;;;;;;;;;;;2373043;54;1543;-18
2023/07/07 09:14:25;;;;;;;;;;;;;;;;;;2372702;62;1931;-19
2023/07/07 09:17:00;;;;;;;;;;;;;;;;;;2372813;62;1100;-19
2023/07/07 09:19:33;;;;;;;;;;;;;;;;;;2375580;62;893;-21
2023/07/07 09:22:16;;;;;;;;;;;;;;;;;;2371946;62;1264;-21
2023/07/07 09:24:49;;;;;;;;;;;;;;;;;;2376124;62;1086;-19
2023/07/07 09:27:23;;;;;;;;;;;;;;;;;;2370629;54;1783;-19
2023/07/07 09:29:58;;;;;;;;;;;;;;;;;;2372416;54;1864;-19
2023/07/07 09:32:28;;;;;;;;;;;;;;;;;;2373461;55;1222;-19
2023/07/07 09:34:58;;;;;;;;;;;;;;;;;;2372763;62;2049;-19
2023/07/07 09:37:29;;;;;;;;;;;;;;;;;;2371067;62;1219;-19
2023/07/07 09:39:59;;;;;;;;;;;;;;;;;;2371379;62;1436;-21
2023/07/07 09:42:48;;;;;;;;;;;;;;;;;;2371822;54;1297;-21
2023/07/07 09:45:33;;;;;;;;;;;;;;;;;;2370599;62;987;-21
2023/07/07 09:48:12;;;;;;;;;;;;;;;;;;2370843;62;1185;-21
2023/07/07 09:50:48;;;;;;;;;;;;;;;;;;2371699;54;1307;-21
2023/07/07 09:53:18;;;;;;;;;;;;;;;;;;2371169;62;1424;-21
2023/07/07 09:55:49;;;;;;;;;;;;;;;;;;2371743;54;1940;-21
2023/07/07 09:58:19;;;;;;;;;;;;;;;;;;2372188;62;1254;-21
2023/07/07 10:00:52;;;;;;;;;;;;;;;;;;2373566;54;1906;-21
2023/07/07 10:03:28;;;;;;;;;;;;;;;;;;2371994;54;1316;-21
2023/07/07 10:06:01;;;;;;;;;;;;;;;;;;2371420;62;978;-21
2023/07/07 10:08:31;;;;;;;;;;;;;;;;;;2372547;54;1252;-21
2023/07/07 10:11:22;;;;;;;;;;;;;;;;;;2371819;62;1308;-21
2023/07/07 10:13:53;;;;;;;;;;;;;;;;;;2374156;54;2053;-21
2023/07/07 10:16:29;;;;;;;;;;;;;;;;;;2370536;59;1957;-21
2023/07/07 10:19:04;;;;;;;;;;;;;;;;;;2370396;54;1355;-21
2023/07/07 10:21:34;;;;;;;;;;;;;;;;;;2371344;54;1696;-21
2023/07/07 10:24:05;;;;;;;;;;;;;;;;;;2370052;54;1303;-21
2023/07/07 10:26:37;;;;;;;;;;;;;;;;;;2371987;54;1247;-21
2023/07/07 10:29:11;;;;;;;;;;;;;;;;;;2369828;54;1723;-21
2023/07/07 10:31:43;;;;;;;;;;;;;;;;;;2371810;54;1459;-19
2023/07/07 10:34:21;;;;;;;;;;;;;;;;;;2370537;54;1923;-19
2023/07/07 10:36:56;;;;;;;;;;;;;;;;;;2371917;54;1926;-19
2023/07/07 10:39:27;;;;;;;;;;;;;;;;;;2371649;62;1431;-19
2023/07/07 10:41:58;;;;;;;;;;;;;;;;;;2370805;54;1214;-19
2023/07/07 10:44:28;;;;;;;;;;;;;;;;;;2370800;62;1044;-21
2023/07/07 10:46:58;;;;;;;;;;;;;;;;;;2370334;54;1216;-21
2023/07/07 10:49:28;;;;;;;;;;;;;;;;;;2370148;54;1689;-21
2023/07/07 10:52:11;;;;;;;;;;;;;;;;;;2369570;54;1473;-21
2023/07/07 10:54:44;;;;;;;;;;;;;;;;;;2370697;62;1912;-21
2023/07/07 10:57:23;;;;;;;;;;;;;;;;;;2371828;54;2256;-21
2023/07/07 11:00:12;;;;;;;;;;;;;;;;;;2372344;62;940;-22
2023/07/07 11:02:42;;;;;;;;;;;;;;;;;;2369766;54;1929;-21
2023/07/07 11:05:12;;;;;;;;;;;;;;;;;;2371880;54;1377;-21
2023/07/07 11:07:45;;;;;;;;;;;;;;;;;;2371823;54;1537;-21
2023/07/07 11:10:18;;;;;;;;;;;;;;;;;;2371793;62;1095;-21
2023/07/07 11:12:55;;;;;;;;;;;;;;;;;;2372458;54;1962;-21
2023/07/07 11:15:32;;;;;;;;;;;;;;;;;;2371665;62;2225;-21
2023/07/07 11:18:22;;;;;;;;;;;;;;;;;;2370848;54;2155;-21
2023/07/07 11:21:15;;;;;;;;;;;;;;;;;;2369988;54;2659;-21
2023/07/07 11:24:04;;;;;;;;;;;;;;;;;;2370726;54;1544;-21
2023/07/07 11:26:56;;;;;;;;;;;;;;;;;;2373149;54;1910;-21
2023/07/07 11:29:45;;;;;;;;;;;;;;;;;;2370945;54;1953;-21
2023/07/07 11:32:21;;;;;;;;;;;;;;;;;;2372410;54;2224;-21
2023/07/07 11:34:54;;;;;;;;;;;;;;;;;;2371357;54;1931;-21
2023/07/07 11:37:30;;;;;;;;;;;;;;;;;;2371586;54;1545;-21
2023/07/07 11:40:00;;;;;;;;;;;;;;;;;;2374041;62;1550;-21
2023/07/07 11:42:34;;;;;;;;;;;;;;;;;;2374064;62;1080;-21
2023/07/07 11:45:23;;;;;;;;;;;;;;;;;;2374654;54;1722;-21
2023/07/07 11:48:02;;;;;;;;;;;;;;;;;;2371529;54;1498;-21
2023/07/07 11:50:45;;;;;;;;;;;;;;;;;;2371859;54;1273;-21
2023/07/07 11:53:18;;;;;;;;;;;;;;;;;;2372200;54;1597;-21
2023/07/07 11:55:49;;;;;;;;;;;;;;;;;;2372179;54;1925;-21
2023/07/07 11:58:25;;;;;;;;;;;;;;;;;;2371050;54;1706;-21
2023/07/07 12:01:14;;;;;;;;;;;;;;;;;;2373509;62;1426;-21
2023/07/07 12:03:50;;;;;;;;;;;;;;;;;;2372862;54;1216;-21
2023/07/07 12:06:27;;;;;;;;;;;;;;;;;;2372305;54;1776;-21
2023/07/07 12:08:57;;;;;;;;;;;;;;;;;;2372549;62;1112;-21
2023/07/07 12:11:30;;;;;;;;;;;;;;;;;;2372543;54;1596;-21
2023/07/07 12:14:04;;;;;;;;;;;;;;;;;;2375005;62;1915;-21
2023/07/07 12:16:38;;;;;;;;;;;;;;;;;;2371091;54;1757;-21
2023/07/07 12:19:14;;;;;;;;;;;;;;;;;;2372269;54;1788;-21
2023/07/07 12:21:46;;;;;;;;;;;;;;;;;;2373605;62;1094;-21
2023/07/07 12:24:32;;;;;;;;;;;;;;;;;;2372200;62;1141;-21
2023/07/07 12:27:08;;;;;;;;;;;;;;;;;;2373883;54;1232;-21
2023/07/07 12:29:43;;;;;;;;;;;;;;;;;;2373359;62;1056;-21
2023/07/07 12:32:13;;;;;;;;;;;;;;;;;;2372457;54;1317;-21
2023/07/07 12:34:48;;;;;;;;;;;;;;;;;;2373955;62;1937;-21
2023/07/07 12:37:20;;;;;;;;;;;;;;;;;;2372806;62;1219;-21
2023/07/07 12:39:54;;;;;;;;;;;;;;;;;;2373512;54;1903;-21
2023/07/07 12:42:27;;;;;;;;;;;;;;;;;;2371685;54;1096;-21
2023/07/07 12:45:07;;;;;;;;;;;;;;;;;;2374127;62;1027;-21
2023/07/07 12:47:40;;;;;;;;;;;;;;;;;;2373246;62;1251;-21
2023/07/07 12:50:27;;;;;;;;;;;;;;;;;;2372794;54;1316;-21
2023/07/07 12:53:01;;;;;;;;;;;;;;;;;;2372807;54;1386;-21
2023/07/07 12:55:36;;;;;;;;;;;;;;;;;;2372933;54;1929;-21
2023/07/07 12:58:06;;;;;;;;;;;;;;;;;;2375926;54;2044;-21
2023/07/07 13:00:40;;;;;;;;;;;;;;;;;;2373193;62;1365;-21
2023/07/07 13:03:10;;;;;;;;;;;;;;;;;;2372559;54;1659;-21
2023/07/07 13:05:46;;;;;;;;;;;;;;;;;;2375105;54;1434;-21
2023/07/07 13:08:39;;;;;;;;;;;;;;;;;;2374436;54;1320;-19
2023/07/07 13:11:17;;;;;;;;;;;;;;;;;;2374331;54;1478;-19
2023/07/07 13:13:47;;;;;;;;;;;;;;;;;;2374432;54;1925;-19
2023/07/07 13:16:18;;;;;;;;;;;;;;;;;;2373567;54;2004;-19
2023/07/07 13:18:49;;;;;;;;;;;;;;;;;;2373452;54;1026;-19
2023/07/07 13:21:31;;;;;;;;;;;;;;;;;;2372459;54;1662;-19
2023/07/07 13:24:02;;;;;;;;;;;;;;;;;;2372956;62;1166;-19
2023/07/07 13:26:32;;;;;;;;;;;;;;;;;;2376778;54;1685;-19
2023/07/07 13:29:06;;;;;;;;;;;;;;;;;;2375334;54;1102;-19
2023/07/07 13:31:38;;;;;;;;;;;;;;;;;;2375291;54;1536;-19
2023/07/07 13:34:14;;;;;;;;;;;;;;;;;;2374574;54;1933;-18
2023/07/07 13:36:45;;;;;;;;;;;;;;;;;;2373897;62;1093;-18
2023/07/07 13:39:18;;;;;;;;;;;;;;;;;;2375801;62;1989;-18
2023/07/07 13:41:48;;;;;;;;;;;;;;;;;;2372525;62;929;-18
2023/07/07 13:44:20;;;;;;;;;;;;;;;;;;2374319;62;948;-18
2023/07/07 13:47:00;;;;;;;;;;;;;;;;;;2374497;54;1222;-18
2023/07/07 13:49:32;;;;;;;;;;;;;;;;;;2373778;54;1463;-18
2023/07/07 13:52:02;;;;;;;;;;;;;;;;;;2372950;54;1210;-18
2023/07/07 13:54:32;;;;;;;;;;;;;;;;;;2373779;62;1927;-18
2023/07/07 13:57:04;;;;;;;;;;;;;;;;;;2372549;54;1255;-18
2023/07/07 13:59:38;;;;;;;;;;;;;;;;;;2372702;62;2255;-18
2023/07/07 14:02:13;;;;;;;;;;;;;;;;;;2370930;54;1742;-18
2023/07/07 14:04:45;;;;;;;;;;;;;;;;;;2372523;54;1216;-18
2023/07/07 14:07:17;;;;;;;;;;;;;;;;;;2345594;53;2031;-24
2023/07/07 14:09:48;;;;;;;;;;;;;;;;;;2196381;59;2012;-21
2023/07/07 14:12:24;;;;;;;;;;;;;;;;;;2200867;59;2139;-21
2023/07/07 14:14:58;;;;;;;;;;;;;;;;;;2200797;59;1910;-22
2023/07/07 14:17:30;;;;;;;;;;;;;;;;;;2199881;67;1873;-22
2023/07/07 14:20:07;;;;;;;;;;;;;;;;;;2197381;67;1862;-23
2023/07/07 14:22:37;;;;;;;;;;;;;;;;;;2198630;59;2023;-22
2023/07/07 14:25:13;;;;;;;;;;;;;;;;;;2197587;59;2337;-22
2023/07/07 14:27:44;;;;;;;;;;;;;;;;;;2196418;59;2689;-22
2023/07/07 14:30:18;;;;;;;;;;;;;;;;;;2197608;59;2425;-22
2023/07/07 14:32:53;;;;;;;;;;;;;;;;;;2197504;67;2177;-22
2023/07/07 14:35:25;;;;;;;;;;;;;;;;;;2197190;59;2569;-22
2023/07/07 14:37:57;;;;;;;;;;;;;;;;;;2197302;59;2084;-23
2023/07/07 14:40:28;;;;;;;;;;;;;;;;;;2197371;59;1727;-22
2023/07/07 14:42:59;;;;;;;;;;;;;;;;;;2197869;67;1384;-22
2023/07/07 14:45:37;;;;;;;;;;;;;;;;;;2197893;59;1821;-23
2023/07/07 14:48:18;;;;;;;;;;;;;;;;;;2197403;59;2131;-23
2023/07/07 14:50:49;;;;;;;;;;;;;;;;;;2199009;59;2502;-23
2023/07/07 14:53:21;;;;;;;;;;;;;;;;;;2198037;59;2032;-23
2023/07/07 14:55:53;;;;;;;;;;;;;;;;;;2198104;59;2001;-23
2023/07/07 14:58:25;;;;;;;;;;;;;;;;;;2196575;59;2614;-23
2023/07/07 15:01:02;;;;;;;;;;;;;;;;;;2198586;67;1846;-23
2023/07/07 15:03:36;;;;;;;;;;;;;;;;;;2198451;59;2258;-23
2023/07/07 15:06:07;;;;;;;;;;;;;;;;;;2198117;67;1740;-23
2023/07/07 15:08:38;;;;;;;;;;;;;;;;;;2197046;59;2299;-23
2023/07/07 15:11:10;;;;;;;;;;;;;;;;;;2197036;59;1820;-23
2023/07/07 15:13:41;;;;;;;;;;;;;;;;;;2197666;67;2620;-23
2023/07/07 15:16:15;;;;;;;;;;;;;;;;;;2197263;67;1918;-23
2023/07/07 15:18:45;;;;;;;;;;;;;;;;;;2198324;67;1872;-23
2023/07/07 15:21:20;;;;;;;;;;;;;;;;;;2196763;59;2499;-23
2023/07/07 15:23:50;;;;;;;;;;;;;;;;;;2198970;59;2269;-23
2023/07/07 15:26:32;;;;;;;;;;;;;;;;;;2197841;59;2948;-23
2023/07/07 15:29:11;;;;;;;;;;;;;;;;;;2195107;59;2667;-23
2023/07/07 15:31:45;;;;;;;;;;;;;;;;;;2198207;59;2315;-23
2023/07/07 15:34:15;;;;;;;;;;;;;;;;;;2198062;67;2064;-23
2023/07/07 15:36:46;;;;;;;;;;;;;;;;;;2197508;59;2180;-23
2023/07/07 15:39:16;;;;;;;;;;;;;;;;;;2197598;67;1947;-23
2023/07/07 15:41:46;;;;;;;;;;;;;;;;;;2198350;67;2056;-24
2023/07/07 15:44:17;;;;;;;;;;;;;;;;;;2198244;64;1997;-23
2023/07/07 15:46:47;;;;;;;;;;;;;;;;;;2199435;59;2173;-23
2023/07/07 15:49:18;;;;;;;;;;;;;;;;;;2197613;59;1845;-23
2023/07/07 15:51:49;;;;;;;;;;;;;;;;;;2200300;59;2199;-23
2023/07/07 15:54:19;;;;;;;;;;;;;;;;;;2198364;67;2833;-23
2023/07/07 15:56:49;;;;;;;;;;;;;;;;;;2198524;59;2095;-23
2023/07/07 15:59:22;;;;;;;;;;;;;;;;;;2198001;59;2185;-23
2023/07/07 16:01:58;;;;;;;;;;;;;;;;;;2197579;67;1899;-23
2023/07/07 16:04:28;;;;;;;;;;;;;;;;;;2197561;59;2181;-23
2023/07/07 16:06:59;;;;;;;;;;;;;;;;;;2198772;59;2382;-23
2023/07/07 16:09:29;;;;;;;;;;;;;;;;;;2197194;59;2167;-23
2023/07/07 16:11:59;;;;;;;;;;;;;;;;;;2197861;59;3222;-23
2023/07/07 16:14:29;;;;;;;;;;;;;;;;;;2198359;67;3405;-23
2023/07/07 16:17:00;;;;;;;;;;;;;;;;;;2197460;59;2412;-23
2023/07/07 16:19:30;;;;;;;;;;;;;;;;;;2198190;59;2279;-23
2023/07/07 16:22:00;;;;;;;;;;;;;;;;;;2199848;67;1993;-22
2023/07/07 16:24:30;;;;;;;;;;;;;;;;;;2200527;67;2015;-22
2023/07/07 16:27:01;;;;;;;;;;;;;;;;;;2198836;59;2332;-22
2023/07/07 16:29:31;;;;;;;;;;;;;;;;;;2197669;67;2550;-23
2023/07/07 16:32:01;;;;;;;;;;;;;;;;;;2198152;59;2153;-22
2023/07/07 16:34:31;;;;;;;;;;;;;;;;;;2198736;67;2609;-22
2023/07/07 16:37:02;;;;;;;;;;;;;;;;;;2198323;67;1999;-22
2023/07/07 16:39:32;;;;;;;;;;;;;;;;;;2198171;67;2459;-23
2023/07/07 16:42:07;;;;;;;;;;;;;;;;;;2197455;59;2055;-23
2023/07/07 16:44:38;;;;;;;;;;;;;;;;;;2198599;67;1816;-23
2023/07/07 16:47:09;;;;;;;;;;;;;;;;;;2197844;60;2768;-23
2023/07/07 16:49:39;;;;;;;;;;;;;;;;;;2198891;59;1639;-23
2023/07/07 16:52:09;;;;;;;;;;;;;;;;;;2198298;59;2195;-23
2023/07/07 16:54:39;;;;;;;;;;;;;;;;;;2198555;59;1988;-23
2023/07/07 16:57:11;;;;;;;;;;;;;;;;;;2197199;59;2512;-23
2023/07/07 16:59:41;;;;;;;;;;;;;;;;;;2198049;59;2920;-23
2023/07/07 17:02:11;;;;;;;;;;;;;;;;;;2198207;67;1951;-23
2023/07/07 17:04:42;;;;;;;;;;;;;;;;;;2198561;59;2072;-23
2023/07/07 17:07:12;;;;;;;;;;;;;;;;;;2196774;59;1796;-23
2023/07/07 17:09:45;;;;;;;;;;;;;;;;;;2198807;67;2261;-23
2023/07/07 17:12:15;;;;;;;;;;;;;;;;;;2201281;59;2513;-23
2023/07/07 17:14:45;;;;;;;;;;;;;;;;;;2198990;59;2193;-23
2023/07/07 17:17:17;;;;;;;;;;;;;;;;;;2197848;67;2530;-23
2023/07/07 17:19:47;;;;;;;;;;;;;;;;;;2198119;59;2459;-23
2023/07/07 17:22:18;;;;;;;;;;;;;;;;;;2197399;59;2268;-23
2023/07/07 17:24:48;;;;;;;;;;;;;;;;;;2198651;67;1805;-23
2023/07/07 17:27:18;;;;;;;;;;;;;;;;;;2197085;59;2547;-23
2023/07/07 17:29:48;;;;;;;;;;;;;;;;;;2198438;67;3605;-23
2023/07/07 17:32:19;;;;;;;;;;;;;;;;;;2197500;59;2283;-23
2023/07/07 17:34:49;;;;;;;;;;;;;;;;;;2198830;67;2959;-23
2023/07/07 17:37:19;;;;;;;;;;;;;;;;;;2198223;59;2227;-23
2023/07/07 17:39:49;;;;;;;;;;;;;;;;;;2198193;67;1843;-23
2023/07/07 17:42:20;;;;;;;;;;;;;;;;;;2198120;67;2399;-23